createdAt,value
2022-09-10T00:00:29.819Z,13.58
2022-09-10T00:02:57.369Z,13.69
2022-09-10T00:05:24.881Z,13.69
2022-09-10T00:07:52.772Z,13.63
2022-09-10T00:10:20.670Z,13.66
2022-09-10T00:12:48.739Z,13.68
2022-09-10T00:15:16.407Z,13.66
2022-09-10T00:17:45.301Z,13.66
2022-09-10T00:20:13.259Z,13.59
2022-09-10T00:22:40.792Z,13.64
2022-09-10T00:25:09.148Z,13.68
2022-09-10T00:27:37.470Z,13.83
2022-09-10T00:30:05.708Z,13.84
2022-09-10T00:32:34.768Z,13.84
2022-09-10T00:35:04.252Z,13.94
2022-09-10T00:37:31.736Z,13.95
2022-09-10T00:39:59.459Z,14.04
2022-09-10T00:42:27.015Z,14.10
2022-09-10T00:45:03.424Z,14.08
2022-09-10T00:47:34.273Z,14.00
2022-09-10T00:50:07.569Z,13.96
2022-09-10T00:52:39.598Z,13.96
2022-09-10T00:55:08.574Z,13.96
2022-09-10T00:57:36.122Z,14.01
2022-09-10T01:00:07.953Z,14.00
2022-09-10T01:02:35.918Z,13.99
2022-09-10T01:05:05.840Z,13.95
2022-09-10T01:07:34.686Z,13.91
2022-09-10T01:10:06.378Z,13.90
2022-09-10T01:13:07.436Z,13.90
2022-09-10T01:15:40.895Z,13.89
2022-09-10T01:18:20.205Z,13.90
2022-09-10T01:21:06.190Z,13.91
2022-09-10T01:24:21.643Z,13.95
2022-09-10T01:27:17.328Z,14.02
2022-09-10T01:29:49.968Z,14.04
2022-09-10T01:32:21.708Z,14.06
2022-09-10T01:34:55.358Z,14.08
2022-09-10T01:37:25.140Z,14.16
2022-09-10T01:39:53.696Z,14.27
2022-09-10T01:42:21.252Z,14.25
2022-09-10T01:44:51.216Z,14.32
2022-09-10T01:47:28.686Z,14.40
2022-09-10T01:50:07.167Z,14.43
2022-09-10T01:52:42.200Z,14.41
2022-09-10T01:55:19.120Z,14.40
2022-09-10T01:57:52.936Z,14.44
2022-09-10T02:00:22.882Z,14.50
2022-09-10T02:02:54.478Z,14.57
2022-09-10T02:05:24.038Z,14.63
2022-09-10T02:07:54.710Z,14.58
2022-09-10T02:10:23.561Z,14.65
2022-09-10T02:12:51.251Z,14.63
2022-09-10T02:15:19.715Z,14.68
2022-09-10T02:17:49.038Z,14.66
2022-09-10T02:20:17.385Z,14.71
2022-09-10T02:22:49.767Z,14.75
2022-09-10T02:25:17.316Z,14.72
2022-09-10T02:27:45.787Z,14.62
2022-09-10T02:30:13.693Z,14.62
2022-09-10T02:32:41.223Z,14.61
2022-09-10T02:35:10.585Z,14.67
2022-09-10T02:37:38.085Z,14.70
2022-09-10T02:40:06.717Z,14.84
2022-09-10T02:42:34.257Z,14.85
2022-09-10T02:45:01.755Z,14.84
2022-09-10T02:47:30.008Z,14.82
2022-09-10T02:49:57.524Z,14.73
2022-09-10T02:52:26.977Z,14.72
2022-09-10T02:54:54.460Z,14.81
2022-09-10T02:57:21.940Z,14.76
2022-09-10T02:59:49.432Z,14.77
2022-09-10T03:02:16.976Z,14.68
2022-09-10T03:04:44.487Z,14.63
2022-09-10T03:07:11.998Z,14.70
2022-09-10T03:09:40.995Z,14.64
2022-09-10T03:12:08.763Z,14.58
2022-09-10T03:14:36.269Z,14.54
2022-09-10T03:17:05.071Z,14.54
2022-09-10T03:19:32.594Z,14.51
2022-09-10T03:22:00.131Z,14.57
2022-09-10T03:24:28.372Z,14.55
2022-09-10T03:26:57.203Z,14.64
2022-09-10T03:29:24.722Z,14.66
2022-09-10T03:31:52.297Z,14.67
2022-09-10T03:34:20.408Z,14.70
2022-09-10T03:36:48.212Z,14.73
2022-09-10T03:39:16.173Z,14.81
2022-09-10T03:41:45.325Z,14.80
2022-09-10T03:44:14.280Z,14.86
2022-09-10T03:46:41.784Z,14.91
2022-09-10T03:49:09.533Z,14.87
2022-09-10T03:51:37.063Z,14.86
2022-09-10T03:54:05.980Z,14.96
2022-09-10T03:56:33.949Z,15.00
2022-09-10T03:59:01.468Z,14.95
2022-09-10T04:01:30.316Z,14.96
2022-09-10T04:03:58.282Z,14.98
2022-09-10T04:06:25.780Z,14.96
2022-09-10T04:08:53.928Z,15.05
2022-09-10T04:11:23.840Z,15.13
2022-09-10T04:13:51.333Z,15.13
2022-09-10T04:16:18.878Z,14.96
2022-09-10T04:18:47.759Z,14.99
2022-09-10T04:21:15.683Z,14.91
2022-09-10T04:23:45.527Z,14.86
2022-09-10T04:26:14.556Z,15.00
2022-09-10T04:28:42.080Z,15.05
2022-09-10T04:31:09.887Z,15.02
2022-09-10T04:33:38.067Z,14.96
2022-09-10T04:36:07.895Z,14.88
2022-09-10T04:38:39.959Z,14.97
2022-09-10T04:41:07.732Z,15.02
2022-09-10T04:43:35.643Z,14.88
2022-09-10T04:46:03.248Z,14.88
2022-09-10T04:48:30.877Z,14.98
2022-09-10T04:53:47.295Z,14.99
2022-09-10T04:56:15.360Z,14.95
2022-09-10T04:58:44.060Z,14.91
2022-09-10T05:01:11.999Z,14.97
2022-09-10T05:03:39.668Z,14.98
2022-09-10T05:06:07.467Z,15.02
2022-09-10T05:08:35.063Z,14.81
2022-09-10T05:11:04.066Z,14.82
2022-09-10T05:13:32.018Z,14.74
2022-09-10T05:15:59.725Z,14.73
2022-09-10T05:18:27.243Z,14.67
2022-09-10T05:20:54.932Z,14.64
2022-09-10T05:23:22.865Z,14.68
2022-09-10T05:25:50.373Z,14.65
2022-09-10T05:28:20.766Z,14.68
2022-09-10T05:30:51.542Z,14.66
2022-09-10T05:33:19.514Z,14.71
2022-09-10T05:35:49.247Z,14.70
2022-09-10T05:38:16.722Z,14.76
2022-09-10T05:40:44.271Z,14.71
2022-09-10T05:43:12.148Z,14.72
2022-09-10T05:45:41.018Z,14.78
2022-09-10T05:48:08.540Z,14.80
2022-09-10T05:50:36.034Z,14.76
2022-09-10T05:53:03.548Z,14.75
2022-09-10T05:55:33.008Z,14.69
2022-09-10T05:58:00.549Z,14.70
2022-09-10T06:00:28.057Z,14.73
2022-09-10T06:02:57.700Z,14.67
2022-09-10T06:05:25.370Z,14.62
2022-09-10T06:07:52.880Z,14.64
2022-09-10T06:10:20.813Z,14.57
2022-09-10T06:12:49.563Z,14.61
2022-09-10T06:15:17.303Z,14.65
2022-09-10T06:17:44.831Z,14.69
2022-09-10T06:20:13.776Z,14.74
2022-09-10T06:22:41.467Z,14.75
2022-09-10T06:25:09.959Z,14.90
2022-09-10T06:27:37.531Z,15.02
2022-09-10T06:30:05.935Z,15.27
2022-09-10T06:32:33.479Z,15.23
2022-09-10T06:35:00.982Z,15.34
2022-09-10T06:37:34.906Z,15.54
2022-09-10T06:40:02.861Z,15.46
2022-09-10T06:42:32.060Z,15.43
2022-09-10T06:45:00.250Z,15.41
2022-09-10T06:48:18.724Z,15.61
2022-09-10T06:50:15.393Z,15.68
2022-09-10T06:52:44.251Z,15.76
2022-09-10T06:55:11.759Z,15.92
2022-09-10T06:57:39.946Z,15.81
2022-09-10T07:00:08.847Z,15.88
2022-09-10T07:02:36.477Z,15.89
2022-09-10T07:05:04.174Z,15.88
2022-09-10T07:07:31.753Z,16.07
2022-09-10T07:10:01.345Z,16.01
2022-09-10T07:12:28.848Z,16.29
2022-09-10T07:14:56.330Z,16.46
2022-09-10T07:17:23.930Z,16.47
2022-09-10T07:19:51.470Z,16.68
2022-09-10T07:22:19.339Z,17.40
2022-09-10T07:24:50.179Z,17.46
2022-09-10T07:27:19.028Z,17.61
2022-09-10T07:29:46.547Z,17.35
2022-09-10T07:32:14.064Z,17.16
2022-09-10T07:34:41.575Z,17.20
2022-09-10T07:37:09.071Z,17.16
2022-09-10T07:39:36.863Z,16.98
2022-09-10T07:42:04.689Z,16.77
2022-09-10T07:44:33.550Z,16.85
2022-09-10T07:47:01.538Z,17.12
2022-09-10T07:49:30.128Z,17.23
2022-09-10T07:52:00.106Z,16.93
2022-09-10T07:54:28.365Z,17.13
2022-09-10T07:56:55.895Z,16.79
2022-09-10T07:59:23.443Z,16.94
2022-09-10T08:01:52.438Z,16.84
2022-09-10T08:04:20.035Z,16.86
2022-09-10T08:06:47.561Z,16.92
2022-09-10T08:09:15.270Z,17.20
2022-09-10T08:11:42.810Z,17.18
2022-09-10T08:14:10.400Z,17.40
2022-09-10T08:16:41.246Z,17.78
2022-09-10T08:19:13.713Z,17.85
2022-09-10T08:21:41.275Z,18.08
2022-09-10T08:24:10.455Z,18.10
2022-09-10T08:26:37.972Z,18.42
2022-09-10T08:29:05.512Z,17.86
2022-09-10T08:31:33.008Z,18.09
2022-09-10T08:34:00.500Z,17.68
2022-09-10T08:36:29.366Z,17.37
2022-09-10T08:39:01.431Z,17.19
2022-09-10T08:41:40.903Z,17.26
2022-09-10T08:44:13.646Z,17.34
2022-09-10T08:46:44.750Z,17.43
2022-09-10T08:49:15.450Z,18.11
2022-09-10T08:51:47.804Z,18.60
2022-09-10T08:54:17.861Z,18.34
2022-09-10T08:56:46.851Z,18.06
2022-09-10T08:59:21.603Z,18.25
2022-09-10T09:01:52.169Z,18.06
2022-09-10T09:04:28.656Z,18.34
2022-09-10T09:07:00.022Z,18.31
2022-09-10T09:09:27.546Z,18.26
2022-09-10T09:12:00.069Z,18.33
2022-09-10T09:14:37.295Z,18.40
2022-09-10T09:17:16.966Z,18.21
2022-09-10T09:19:46.999Z,18.33
2022-09-10T09:22:19.148Z,18.19
2022-09-10T09:24:53.640Z,18.47
2022-09-10T09:27:21.143Z,18.00
2022-09-10T09:29:52.962Z,18.00
2022-09-10T09:32:21.719Z,18.19
2022-09-10T09:34:51.105Z,18.54
2022-09-10T09:37:22.259Z,18.57
2022-09-10T09:39:59.402Z,18.59
2022-09-10T09:42:34.660Z,18.88
2022-09-10T09:45:08.466Z,19.20
2022-09-10T09:47:35.983Z,19.16
2022-09-10T09:50:03.479Z,19.29
2022-09-10T09:52:33.093Z,19.57
2022-09-10T09:55:15.519Z,19.56
2022-09-10T09:57:43.559Z,19.67
2022-09-10T10:00:34.426Z,21.19
2022-09-10T10:03:07.040Z,21.39
2022-09-10T10:05:34.569Z,20.13
2022-09-10T10:08:03.751Z,21.08
2022-09-10T10:10:31.302Z,20.61
2022-09-10T10:12:58.868Z,20.38
2022-09-10T10:15:37.518Z,20.83
2022-09-10T10:18:25.372Z,20.38
2022-09-10T10:21:13.881Z,20.64
2022-09-10T10:23:43.026Z,21.41
2022-09-10T10:26:30.277Z,20.82
2022-09-10T10:29:00.323Z,20.41
2022-09-10T10:31:36.601Z,20.99
2022-09-10T10:34:18.075Z,20.39
2022-09-10T10:36:52.198Z,21.17
2022-09-10T10:39:24.827Z,21.22
2022-09-10T10:42:04.269Z,20.95
2022-09-10T10:44:49.451Z,20.72
2022-09-10T10:47:29.744Z,20.77
2022-09-10T10:50:04.395Z,20.70
2022-09-10T10:52:40.823Z,21.61
2022-09-10T10:55:17.194Z,21.86
2022-09-10T10:57:59.618Z,21.10
2022-09-10T11:00:27.626Z,20.67
2022-09-10T11:03:02.155Z,21.28
2022-09-10T11:05:32.131Z,20.99
2022-09-10T11:08:00.551Z,21.89
2022-09-10T11:10:33.870Z,21.32
2022-09-10T11:13:05.931Z,21.46
2022-09-10T11:15:36.524Z,22.17
2022-09-10T11:18:08.583Z,21.81
2022-09-10T11:20:38.855Z,21.42
2022-09-10T11:23:14.693Z,21.82
2022-09-10T11:25:54.183Z,21.97
2022-09-10T11:28:25.023Z,21.89
2022-09-10T11:30:57.735Z,21.37
2022-09-10T11:33:29.477Z,21.57
2022-09-10T11:36:03.661Z,21.66
2022-09-10T11:38:36.753Z,21.35
2022-09-10T11:41:10.255Z,21.21
2022-09-10T11:43:42.204Z,21.38
2022-09-10T11:46:13.868Z,21.47
2022-09-10T11:48:43.791Z,21.57
2022-09-10T11:51:20.353Z,22.04
2022-09-10T11:53:47.927Z,22.37
2022-09-10T11:56:30.492Z,21.83
2022-09-10T11:59:09.553Z,22.07
2022-09-10T12:01:51.778Z,22.10
2022-09-10T12:04:38.011Z,22.57
2022-09-10T12:07:14.332Z,23.84
2022-09-10T12:09:49.695Z,23.35
2022-09-10T12:12:25.167Z,22.73
2022-09-10T12:14:52.695Z,23.69
2022-09-10T12:17:24.311Z,23.04
2022-09-10T12:19:54.695Z,22.74
2022-09-10T12:22:26.011Z,22.60
2022-09-10T12:24:56.315Z,22.69
2022-09-10T12:27:44.714Z,23.16
2022-09-10T12:31:03.230Z,22.46
2022-09-10T12:34:15.763Z,22.55
2022-09-10T12:37:21.268Z,21.64
2022-09-10T12:39:49.474Z,21.23
2022-09-10T12:42:31.551Z,21.77
2022-09-10T12:44:59.066Z,21.93
2022-09-10T12:47:53.399Z,21.68
2022-09-10T12:50:33.979Z,22.00
2022-09-10T12:53:31.914Z,21.84
2022-09-10T12:56:02.723Z,21.59
2022-09-10T12:58:49.642Z,22.43
2022-09-10T13:01:26.227Z,22.35
2022-09-10T13:03:57.039Z,22.81
2022-09-10T13:06:35.859Z,22.11
2022-09-10T13:09:06.010Z,21.96
2022-09-10T13:11:36.130Z,21.85
2022-09-10T13:14:05.927Z,21.83
2022-09-10T13:16:41.220Z,22.45
2022-09-10T13:19:46.366Z,22.61
2022-09-10T13:22:36.106Z,21.77
2022-09-10T13:25:07.171Z,21.42
2022-09-10T13:27:40.459Z,21.29
2022-09-10T13:30:17.123Z,20.98
2022-09-10T13:32:48.256Z,20.83
2022-09-10T13:35:48.053Z,20.93
2022-09-10T13:38:43.300Z,21.17
2022-09-10T13:41:27.905Z,21.50
2022-09-10T13:44:07.161Z,21.33
2022-09-10T13:46:38.135Z,21.75
2022-09-10T13:49:09.189Z,22.35
2022-09-10T13:51:40.588Z,22.05
2022-09-10T13:54:13.795Z,21.72
2022-09-10T13:56:43.624Z,21.51
2022-09-10T13:59:25.334Z,21.54
2022-09-10T14:01:55.261Z,21.63
2022-09-10T14:04:27.280Z,21.62
2022-09-10T14:08:30.336Z,21.39
2022-09-10T14:11:00.801Z,21.11
2022-09-10T14:13:31.038Z,21.38
2022-09-10T14:16:01.445Z,21.33
2022-09-10T14:18:35.272Z,21.48
2022-09-10T14:21:03.357Z,21.41
2022-09-10T14:23:32.320Z,21.48
2022-09-10T14:26:14.556Z,21.57
2022-09-10T14:29:01.006Z,21.13
2022-09-10T14:31:34.633Z,20.95
2022-09-10T14:34:30.428Z,20.90
2022-09-10T14:36:58.582Z,20.77
2022-09-10T14:39:27.787Z,20.82
2022-09-10T14:42:21.478Z,21.20
2022-09-10T14:44:48.978Z,21.42
2022-09-10T14:47:27.208Z,21.57
2022-09-10T14:49:54.730Z,21.62
2022-09-10T14:52:23.492Z,21.69
2022-09-10T14:54:52.345Z,22.06
2022-09-10T14:57:19.966Z,22.04
2022-09-10T14:59:47.783Z,22.21
2022-09-10T15:02:17.690Z,22.12
2022-09-10T15:04:54.050Z,21.63
2022-09-10T15:07:23.534Z,21.47
2022-09-10T15:09:53.417Z,21.36
2022-09-10T15:12:23.879Z,21.26
2022-09-10T15:14:51.960Z,21.54
2022-09-10T15:17:19.881Z,21.56
2022-09-10T15:19:48.548Z,21.34
2022-09-10T15:22:22.779Z,21.06
2022-09-10T15:25:09.140Z,20.97
2022-09-10T15:27:37.482Z,21.04
2022-09-10T15:30:06.215Z,21.10
2022-09-10T15:32:34.152Z,20.92
2022-09-10T15:35:01.804Z,20.46
2022-09-10T15:37:29.303Z,20.52
2022-09-10T15:39:58.429Z,20.50
2022-09-10T15:42:26.075Z,20.45
2022-09-10T15:44:53.619Z,20.54
2022-09-10T15:47:21.137Z,20.85
2022-09-10T15:49:48.682Z,20.67
2022-09-10T15:52:16.189Z,20.71
2022-09-10T15:54:43.834Z,20.51
2022-09-10T15:57:12.695Z,20.63
2022-09-10T15:59:40.494Z,20.72
2022-09-10T16:02:10.476Z,20.50
2022-09-10T16:04:41.354Z,20.20
2022-09-10T16:07:10.927Z,20.29
2022-09-10T16:09:38.713Z,20.44
2022-09-10T16:12:06.604Z,20.34
2022-09-10T16:14:35.991Z,20.23
2022-09-10T16:17:10.186Z,20.15
2022-09-10T16:19:37.991Z,20.19
2022-09-10T16:22:05.723Z,20.46
2022-09-10T16:24:33.645Z,20.36
2022-09-10T16:27:01.272Z,20.07
2022-09-10T16:29:29.369Z,20.22
2022-09-10T16:31:58.217Z,20.12
2022-09-10T16:34:25.882Z,20.17
2022-09-10T16:36:53.410Z,20.23
2022-09-10T16:39:21.101Z,20.30
2022-09-10T16:41:50.684Z,20.22
2022-09-10T16:44:19.284Z,20.10
2022-09-10T16:46:47.478Z,20.04
2022-09-10T16:49:18.326Z,20.05
2022-09-10T16:51:47.383Z,20.27
2022-09-10T16:54:19.243Z,20.33
2022-09-10T16:56:48.254Z,20.49
2022-09-10T16:59:17.731Z,20.53
2022-09-10T17:01:47.713Z,20.76
2022-09-10T17:04:21.340Z,20.74
2022-09-10T17:06:51.043Z,20.66
2022-09-10T17:09:19.036Z,20.21
2022-09-10T17:11:46.608Z,20.21
2022-09-10T17:14:14.116Z,20.29
2022-09-10T17:16:43.554Z,19.97
2022-09-10T17:19:12.493Z,20.02
2022-09-10T17:21:42.703Z,19.81
2022-09-10T17:24:12.110Z,19.83
2022-09-10T17:26:40.760Z,19.82
2022-09-10T17:29:09.996Z,19.63
2022-09-10T17:31:37.970Z,19.53
2022-09-10T17:34:06.043Z,19.42
2022-09-10T17:36:34.795Z,19.13
2022-09-10T17:39:04.119Z,19.10
2022-09-10T17:41:31.927Z,19.06
2022-09-10T17:44:00.331Z,18.97
2022-09-10T17:46:28.408Z,18.97
2022-09-10T17:48:56.087Z,18.88
2022-09-10T17:51:25.290Z,18.78
2022-09-10T17:53:53.941Z,18.61
2022-09-10T17:56:23.866Z,18.47
2022-09-10T17:58:55.659Z,18.34
2022-09-10T18:01:24.580Z,18.38
2022-09-10T18:03:52.504Z,18.26
2022-09-10T18:06:21.324Z,18.26
2022-09-10T18:08:50.340Z,18.18
2022-09-10T18:11:20.459Z,18.07
2022-09-10T18:13:52.298Z,18.13
2022-09-10T18:16:22.251Z,18.09
2022-09-10T18:18:52.705Z,18.05
2022-09-10T18:21:23.864Z,17.99
2022-09-10T18:23:52.881Z,18.05
2022-09-10T18:26:22.111Z,17.98
2022-09-10T18:28:56.807Z,17.93
2022-09-10T18:31:25.106Z,17.95
2022-09-10T18:33:53.618Z,17.91
2022-09-10T18:36:21.668Z,17.92
2022-09-10T18:38:49.186Z,17.76
2022-09-10T18:41:22.290Z,17.68
2022-09-10T18:43:50.882Z,17.66
2022-09-10T18:46:20.786Z,17.64
2022-09-10T18:48:48.692Z,17.54
2022-09-10T18:51:17.926Z,17.54
2022-09-10T18:53:46.367Z,17.48
2022-09-10T18:56:16.116Z,17.30
2022-09-10T18:58:43.952Z,17.30
2022-09-10T19:01:14.058Z,17.51
2022-09-10T19:03:45.110Z,17.43
2022-09-10T19:06:15.120Z,17.17
2022-09-10T19:08:47.558Z,17.28
2022-09-10T19:11:17.365Z,17.15
2022-09-10T19:13:48.963Z,17.20
2022-09-10T19:16:17.080Z,17.10
2022-09-10T19:18:50.550Z,16.83
2022-09-10T19:21:18.157Z,16.96
2022-09-10T19:23:45.664Z,16.93
2022-09-10T19:26:13.497Z,16.66
2022-09-10T19:28:42.052Z,16.77
2022-09-10T19:31:11.656Z,16.66
2022-09-10T19:33:39.513Z,16.56
2022-09-10T19:36:10.540Z,16.65
2022-09-10T19:38:38.346Z,16.62
2022-09-10T19:41:07.780Z,16.51
2022-09-10T19:43:36.374Z,16.58
2022-09-10T19:46:04.597Z,16.32
2022-09-10T19:48:32.375Z,16.36
2022-09-10T19:51:01.050Z,16.26
2022-09-10T19:53:31.426Z,16.43
2022-09-10T19:56:04.060Z,16.42
2022-09-10T19:58:31.604Z,16.56
2022-09-10T20:00:59.110Z,16.36
2022-09-10T20:03:26.643Z,16.36
2022-09-10T20:05:54.169Z,16.55
2022-09-10T20:08:21.671Z,16.67
2022-09-10T20:10:53.302Z,16.73
2022-09-10T20:13:20.838Z,16.65
2022-09-10T20:15:49.330Z,16.72
2022-09-10T20:18:17.009Z,16.62
2022-09-10T20:20:44.552Z,16.59
2022-09-10T20:23:12.060Z,16.62
2022-09-10T20:25:39.923Z,16.59
2022-09-10T20:28:08.836Z,16.60
2022-09-10T20:30:36.579Z,16.52
2022-09-10T20:33:04.083Z,16.67
2022-09-10T20:35:31.627Z,16.66
2022-09-10T20:37:59.383Z,16.69
2022-09-10T20:40:26.906Z,16.52
2022-09-10T20:42:54.404Z,16.53
2022-09-10T20:45:24.411Z,16.63
2022-09-10T20:47:51.931Z,16.66
2022-09-10T20:50:19.443Z,16.58
2022-09-10T20:52:47.064Z,16.65
2022-09-10T20:55:14.675Z,16.68
2022-09-10T20:57:42.188Z,16.71
2022-09-10T21:00:11.392Z,16.56
2022-09-10T21:02:40.281Z,16.58
2022-09-10T21:05:08.588Z,16.55
2022-09-10T21:07:36.113Z,16.45
2022-09-10T21:10:03.608Z,16.49
2022-09-10T21:12:31.152Z,16.28
2022-09-10T21:14:58.660Z,16.17
2022-09-10T21:17:26.186Z,16.07
2022-09-10T21:19:55.021Z,16.07
2022-09-10T21:22:22.547Z,16.11
2022-09-10T21:24:50.037Z,15.99
2022-09-10T21:27:17.550Z,15.84
2022-09-10T21:29:45.083Z,15.82
2022-09-10T21:32:12.580Z,15.82
2022-09-10T21:34:40.643Z,15.84
2022-09-10T21:37:10.191Z,15.74
2022-09-10T21:39:37.731Z,15.72
2022-09-10T21:42:05.591Z,15.51
2022-09-10T21:44:33.147Z,15.53
2022-09-10T21:47:00.653Z,15.53
2022-09-10T21:49:28.144Z,15.26
2022-09-10T21:51:55.668Z,15.15
2022-09-10T21:54:25.338Z,15.26
2022-09-10T21:56:53.027Z,15.23
2022-09-10T21:59:21.440Z,15.02
2022-09-10T22:01:49.839Z,14.92
2022-09-10T22:04:22.061Z,15.17
2022-09-10T22:06:50.707Z,15.11
2022-09-10T22:09:19.729Z,15.04
2022-09-10T22:11:51.861Z,15.19
2022-09-10T22:14:21.373Z,15.10
2022-09-10T22:16:49.106Z,15.05
2022-09-10T22:19:18.477Z,15.04
2022-09-10T22:21:46.064Z,14.93
2022-09-10T22:24:17.196Z,14.63
2022-09-10T22:26:45.355Z,14.39
2022-09-10T22:29:16.633Z,14.29
2022-09-10T22:31:44.155Z,14.29
2022-09-10T22:34:13.258Z,14.81
2022-09-10T22:36:41.847Z,14.76
2022-09-10T22:39:12.630Z,14.59
2022-09-10T22:41:40.755Z,14.81
2022-09-10T22:44:08.488Z,14.53
2022-09-10T22:46:38.399Z,14.52
2022-09-10T22:49:06.445Z,14.53
2022-09-10T22:51:36.024Z,14.62
2022-09-10T22:54:04.769Z,14.38
2022-09-10T22:56:32.297Z,14.62
2022-09-10T22:59:00.677Z,14.65
2022-09-10T23:01:29.583Z,14.65
2022-09-10T23:03:59.407Z,14.50
2022-09-10T23:06:28.251Z,14.46
2022-09-10T23:08:57.362Z,14.60
2022-09-10T23:11:26.684Z,14.64
2022-09-10T23:13:56.674Z,14.34
2022-09-10T23:16:26.171Z,14.24
2022-09-10T23:18:55.146Z,14.03
2022-09-10T23:21:25.051Z,14.20
2022-09-10T23:23:54.312Z,14.01
2022-09-10T23:26:22.398Z,13.87
2022-09-10T23:28:50.401Z,14.18
2022-09-10T23:31:20.534Z,14.36
2022-09-10T23:33:49.294Z,14.11
2022-09-10T23:36:16.804Z,14.14
2022-09-10T23:38:45.677Z,14.28
2022-09-10T23:41:13.688Z,13.92
2022-09-10T23:43:41.458Z,14.11
2022-09-10T23:46:10.214Z,14.15
2022-09-10T23:48:38.153Z,13.94
2022-09-10T23:51:06.447Z,13.93
2022-09-10T23:53:34.239Z,14.02
2022-09-10T23:56:04.510Z,13.80
2022-09-10T23:58:32.015Z,13.79
